Waarschuwingen Drenthe

Code Groen. Er zijn momenteel geen waarschuwingen van kracht.

Bron: KNMI



Webcam op het Zuiden Meer informatie Webcam op het Zuiden


Webcam op het Westen Meer informatie Webcam op het Westen


Onweer radar Meer informatie blitzortung!


Regen radar  rain snow radar


Lokaal brand risico:
CBI


Regionaal brand risico: Meer informatie


Lokaal brand risico:
Gebaseerd op actuele waarde
CBI


Bezoek ook deze websites:

Template documentation
and downloads

And another site



METAR rapporten vliegvelden

   
ETWM - Meppen, Germany
Afstand tot: O 29 km
Gewijzigd: 26-05-2024 17:20
  
  
   Wind: ZZO 13 km/h<br />Gust to 13 km/h
Wind: ZZO 13 km/h
Gust to 13 km/h
Temperatuur: 22°C
Dauwpunt: 10°C
Vochtigheid: 47%
Barometer: 1013 hPa
ETWM 261520Z AUTO 16007G20KT //// // ////// 22/10 Q1013 ///
EHGG - Groningen/Eelde, Netherlands
Afstand tot: NNW 47 km
Gewijzigd: 26-05-2024 17:25
Gedeeltelijk bewolkt  
Gedeeltelijk bewolkt  
   Wind: Westen 11.1 km/h
Wind: Westen 11.1 km/h
Temperatuur: 19°C
Dauwpunt: 12°C
Vochtigheid: 64%
Barometer: 1013 hPa
Bewolking: Gedeeltelijk bewolkt
Zicht: meer dan 10 km
Bewolking: Gedeeltelijk bewolkt
EHGG 261525Z AUTO 28006KT 230V330 9999 NSC 19/12 Q1013 NOSIG
EDDG - Muenster/Osnabru, Germany
Afstand tot: ZO 87 km
Gewijzigd: 26-05-2024 17:20
Helder  
Helder  
   Wind: Zuiden 7.4 km/h
Wind: Zuiden 7.4 km/h
Temperatuur: 23°C
Dauwpunt: 11°C
Vochtigheid: 47%
Barometer: 1013 hPa
Zicht: meer dan 10 km
Bewolking: Helder
EDDG 261520Z AUTO 18004KT 140V220 CAVOK 23/11 Q1013 RESHRA NOSIG
EHLW - Leeuwarden Rnlaf, Netherlands
Afstand tot: NW 93 km
Gewijzigd: 26-05-2024 17:25
Bewolking  
Bewolking  
   Wind: Westen 7.4 km/h
Wind: Westen 7.4 km/h
Temperatuur: 18°C
Dauwpunt: 13°C
Vochtigheid: 73%
Barometer: 1013 hPa
Bewolking: Bewolking
Zicht: meer dan 10 km
Bewolking: Grotendeels bewolkt 9700 ft,
Bewolking 10000 ft
EHLW 261525Z AUTO 26004KT 220V300 9999 BKN097 OVC100 18/13 Q1013 BLU
ETNT - Wittmundhaven(Ga, Germany
Afstand tot: NNO 100 km
Gewijzigd: 26-05-2024 17:20
  
  
   Wind: ZZO 13 km/h
Wind: ZZO 13 km/h
Temperatuur: 23°C
Dauwpunt: 12°C
Vochtigheid: 50%
Barometer: 1013 hPa
ETNT 261520Z AUTO 15007KT //// // ////// 23/12 Q1013 ///
ETND - Diepholz (ger-Af, Germany
Afstand tot: O 104 km
Gewijzigd: 24-05-2024 11:20
Verouderd
Grotendeels bewolkt  
Grotendeels bewolkt  
   Wind: Oosten 14.8 km/h
Wind: Oosten 14.8 km/h
Temperatuur: 21°C
Dauwpunt: 10°C
Vochtigheid: 50%
Barometer: 1019 hPa
Bewolking: Grotendeels bewolkt
Zicht: meer dan 10 km
Bewolking: Licht bewolkt 4100 ft,
Gedeeltelijk bewolkt 15000 ft,
Grotendeels bewolkt 26000 ft
ETND 240920Z 08008KT 9999 FEW041 SCT150 BKN260 21/10 Q1019 BLU+
ETNT - Wittmundhaven(Ga, Germany
Afstand tot: NNO 102 km
Gewijzigd: 26-05-2024 17:20
  
  
   Wind: ZZO 13 km/h
Wind: ZZO 13 km/h
Temperatuur: 23°C
Dauwpunt: 12°C
Vochtigheid: 50%
Barometer: 1013 hPa
ETNT 261520Z AUTO 15007KT //// // ////// 23/12 Q1013 ///
EHDL - Deelen Rnlafb, Netherlands
Afstand tot: ZW 103 km
Gewijzigd: 26-05-2024 17:25
Light, Bewolking  
Light, Bewolking  
   Wind: WZW 9.3 km/h
Wind: WZW 9.3 km/h
Temperatuur: 21°C
Dauwpunt: 13°C
Vochtigheid: 60%
Barometer: 1012 hPa
Bewolking: Bewolking
Zicht: meer dan 10 km
Bewolking: Licht bewolkt 5400 ft,
Grotendeels bewolkt 6000 ft,
Bewolking 6500 ft
EHDL 261525Z AUTO 25005KT 150V310 9999 -UP FEW054 BKN060 OVC065 21/13 Q1012 BLU
EHMA - Awg-1 Sea, Netherlands
Afstand tot: NW 105 km
Gewijzigd: 26-05-2024 17:25
Gedeeltelijk bewolkt  
Gedeeltelijk bewolkt  
   Wind: WZW 27.8 km/h
Wind: WZW 27.8 km/h
Temperatuur: 16°C
Dauwpunt: 13°C
Vochtigheid: 83%
Barometer: 1013 hPa
Bewolking: Gedeeltelijk bewolkt
Zicht: meer dan 10 km
Bewolking: Gedeeltelijk bewolkt,
Licht bewolkt 1500 ft
EHMA 261525Z AUTO 25015KT 9999 SCT000 FEW015CB 16/13 Q1013 RETS
EDDW - Bremen, Germany
Afstand tot: ONO 135 km
Gewijzigd: 26-05-2024 17:20
Helder  
Helder  
   Wind: ZZO 14.8 km/h
Wind: ZZO 14.8 km/h
Temperatuur: 23°C
Dauwpunt: 14°C
Vochtigheid: 57%
Barometer: 1014 hPa
Zicht: meer dan 10 km
Bewolking: Helder
EDDW 261520Z AUTO 15008KT CAVOK 23/14 Q1014 TEMPO SHRA SCT030CB
EHVL - Vlieland Island, Netherlands
Afstand tot: WNW 138 km
Gewijzigd: 26-05-2024 17:30
Veel motregen, Regen, Grotendeels bewolkt  
Veel motregen, Regen, Grotendeels bewolkt  
   Wind: ZO 20.4 km/h
Wind: ZO 20.4 km/h
Temperatuur: 17°C
Dauwpunt: 14°C
Vochtigheid: 83%
Barometer: 1012 hPa
Bewolking: Grotendeels bewolkt
Zicht: meer dan 10 km
Bewolking: Licht bewolkt 6200 ft,
Gedeeltelijk bewolkt 7400 ft,
Grotendeels bewolkt 7900 ft
EHVL 261530Z AUTO 14011KT 9999 +DZRA FEW062 SCT074 BKN079 17/14 Q1012 BLACKBLU
EDLV - Niederrhein, Germany
Afstand tot: ZZW 139 km
Gewijzigd: 26-05-2024 17:20
Regenbuien, Licht bewolkt  
Regenbuien, Licht bewolkt  
   Wind: ZZO 11.1 km/h
Wind: ZZO 11.1 km/h
Temperatuur: 22°C
Dauwpunt: 13°C
Vochtigheid: 57%
Barometer: 1012 hPa
Bewolking: Licht bewolkt
Zicht: meer dan 10 km
Bewolking: Licht bewolkt 2200 ft
EDLV 261520Z 16006KT 110V230 9999 VCSH FEW022TCU 22/13 Q1012
EHKD - De Kooy (navy), Netherlands
Afstand tot: W 144 km
Gewijzigd: 26-05-2024 17:25
Gedeeltelijk bewolkt  
Gedeeltelijk bewolkt  
   Wind: OZO 16.7 km/h
Wind: OZO 16.7 km/h
Temperatuur: 19°C
Dauwpunt: 13°C
Vochtigheid: 68%
Barometer: 1012 hPa
Bewolking: Gedeeltelijk bewolkt
Zicht: meer dan 10 km
Bewolking: Gedeeltelijk bewolkt 10000 ft
EHKD 261525Z AUTO 12009KT 090V150 9999 SCT100 19/13 Q1012 BLU NOSIG
EDLW - Dortmund/Wickede, Germany
Afstand tot: ZZO 150 km
Gewijzigd: 26-05-2024 17:20
Wat regen mogelijk, Licht bewolkt  
Wat regen mogelijk, Licht bewolkt  
   Wind: ZZW 29.6 km/h<br />Gust to 29.6 km/h
Wind: ZZW 29.6 km/h
Gust to 29.6 km/h
Temperatuur: 18°C
Dauwpunt: 11°C
Vochtigheid: 64%
Barometer: 1014 hPa
Bewolking: Licht bewolkt
Zicht: meer dan 10 km
Bewolking: Licht bewolkt 4400 ft
EDLW 261520Z 20016G28KT 9999 -RA FEW044CB 18/11 Q1014
EHVK - Volkel Rnlafb, Netherlands
Afstand tot: ZZW 149 km
Gewijzigd: 26-05-2024 17:25
Light Thunderstorm, Regen, Grotendeels bewolkt  
Light Thunderstorm, Regen, Grotendeels bewolkt  
   Wind: ZZO 14.8 km/h
Wind: ZZO 14.8 km/h
Temperatuur: 19°C
Dauwpunt: 15°C
Vochtigheid: 78%
Barometer: 1012 hPa
Bewolking: Grotendeels bewolkt
Zicht: meer dan 10 km
Bewolking: Licht bewolkt 1500 ft,
Gedeeltelijk bewolkt 6100 ft,
Grotendeels bewolkt 8000 ft
EHVK 261525Z AUTO 16008KT 110V200 9999 -TSRA FEW015CB SCT061 BKN080 19/15 Q1012 BLU
EDLW - Dortmund/Wickede, Germany
Afstand tot: ZZO 150 km
Gewijzigd: 26-05-2024 17:20
Wat regen mogelijk, Licht bewolkt  
Wat regen mogelijk, Licht bewolkt  
   Wind: ZZW 29.6 km/h<br />Gust to 29.6 km/h
Wind: ZZW 29.6 km/h
Gust to 29.6 km/h
Temperatuur: 18°C
Dauwpunt: 11°C
Vochtigheid: 64%
Barometer: 1014 hPa
Bewolking: Licht bewolkt
Zicht: meer dan 10 km
Bewolking: Licht bewolkt 4400 ft
EDLW 261520Z 20016G28KT 9999 -RA FEW044CB 18/11 Q1014
EHMG - L9-Ff-1 Sea, Netherlands
Afstand tot: NW 155 km
Gewijzigd: 26-05-2024 17:25
Licht bewolkt  
Licht bewolkt  
   Wind: varieert 13 km/h
Wind: varieert 13 km/h
Temperatuur: 16°C
Dauwpunt: 12°C
Vochtigheid: 77%
Barometer: 1014 hPa
Bewolking: Licht bewolkt
Zicht: meer dan 10 km
Bewolking: Licht bewolkt 1700 ft
EHMG 261525Z AUTO VRB07KT 9999 FEW017 16/12 Q1014
ETHB - Buckeburg(Ger-Ar, Germany
Afstand tot: OZO 161 km
Gewijzigd: 26-05-2024 17:20
Grotendeels bewolkt  
Grotendeels bewolkt  
   Wind: Zuiden 18.5 km/h
Wind: Zuiden 18.5 km/h
Temperatuur: 24°C
Dauwpunt: 10°C
Vochtigheid: 41%
Barometer: 1014 hPa
Bewolking: Grotendeels bewolkt
Zicht: meer dan 10 km
Bewolking: Licht bewolkt 5600 ft,
Gedeeltelijk bewolkt 16000 ft,
Grotendeels bewolkt 21000 ft
ETHB 261520Z 18010KT 9999 FEW056 SCT160 BKN210 24/10 Q1014 BLU+
ETMN - Nordholz (ger-Na, Germany
Afstand tot: NO 164 km
Gewijzigd: 26-05-2024 17:20
Grotendeels bewolkt  
Grotendeels bewolkt  
   Wind: OZO 11.1 km/h
Wind: OZO 11.1 km/h
Temperatuur: 22°C
Dauwpunt: 13°C
Vochtigheid: 57%
Barometer: 1014 hPa
Bewolking: Grotendeels bewolkt
Zicht: meer dan 10 km
Bewolking: Gedeeltelijk bewolkt 4000 ft,
Grotendeels bewolkt 25000 ft
ETMN 261520Z 11006KT 9999 SCT040 BKN250 22/13 Q1014 BLU+
EDDL - Duesseldorf, Germany
Afstand tot: Z 165 km
Gewijzigd: 26-05-2024 17:20
Regenbuien, Regen, Nearby Thunderstorm  
Regenbuien, Regen, Nearby Thunderstorm  
   Wind: ZO 16.7 km/h
Wind: ZO 16.7 km/h
Zicht: meer dan 10 km
EDDL 261520Z AUTO 13009KT 100V170 9999 SHRA VCTS FEW///CB 21/12 Q1013 TEMPO 23020G35KT 4000 TSRA BKN035CB
EDLN - Monchengladbach, Germany
Afstand tot: Z 174 km
Gewijzigd: 26-05-2024 17:20
Regenbuien, Regen, Grotendeels bewolkt  
Regenbuien, Regen, Grotendeels bewolkt  
   Wind: ZZW 9.3 km/h
Wind: ZZW 9.3 km/h
Temperatuur: 17°C
Dauwpunt: 15°C
Vochtigheid: 88%
Barometer: 1013 hPa
Bewolking: Grotendeels bewolkt
Zicht: 4 km
Bewolking: Licht bewolkt 1300 ft,
Grotendeels bewolkt 6000 ft
EDLN 261520Z 20005KT 140V280 4000 SHRA FEW013 BKN060TCU 17/15 Q1013

Script ontwikkeld door  Saratoga-weather.org Aangepast voor de template door  Weerstation Leuven

U vindt ons ook hier:

Het Weer Aktueel

European Weather Network

Weather Underground

Wetterpage 24

Apparatuur in gebruik:

Weerstation
Davis VP2

Weerprogramma
Meteohub

Hardware
RaspberryPI, Wireless Weather Envoy, MeteoStick, TP-Link MR3020

Leverancier
Weerhuisje.nl weerstations

Davis VP2

Meteohub

RaspberryPI, Wireless Weather Envoy, MeteoStick, TP-Link MR3020

Weerhuisje.nl weerstations